Ames, Kansas
Current Conditions -  °F | °C
As of 4:55 PM on Friday 31 Oct 2014 (Local Time) from KCNK Reporting Station
Clear Clear  
Wind Chill: 43°   Ceiling: Unl
Heat Index: 45°   Visibility: 10mi
Dew Point: 14°   Wind: 5mph
Humidity: 29%   Direction: 40°NE
Pressure: 30.46"   Gusts: NA
Location:  39.4716°N, 97.7305°W
Report Text: KCNK 312155Z AUTO 04004KT 10SM CLR 07/M10 A3046 RMK AO2 SLP321 T00721100
Loading
Personal Weather Stations






























Interactive Weather Map
Tropical Storm Tracking
New forecast layout! Learn more

10-Day Weather Forecast

Advertisements
Track Severe Weather on mobile